• Join FlightAware (Why Join?)
  • Login
  • US Flag 
05:31AM EST


 

Airport Tracker/Info


-or-


 

Live Flight TrackerFlight Track Log ✈ EGF3793 ✈ 11-Jun-2013 ✈ KORD - KOKC

Flight Track Log - Related Links

Times and Time Zones

All times are in EDT time to prevent confusion due to time zone crossing. See the EGF3793 flight status page for this flight to view local times or setup timezone preferences in your user account.

Time Position Orientation Groundspeed Altitude Reporting Facility
EDT Latitude Longitude Course Direction KTS MPH feet Rate Location/Type
11:42PM 41.9500 -87.9167 253° West 170 196 1,600  Level Chicago TRACON
11:43PM 41.9500 -88.0000 270° West 221 254 3,700 2,100 Climbing Chicago TRACON
11:44PM 41.8793 -88.3268 242° Southwest  Level FlightAware Approximate
11:45PM 41.8372 -88.4643 255° West  Level FlightAware Approximate
11:45PM 41.9442 -88.1544 267° West 262 302 7,700  Level Chicago Center
11:46PM 41.8059 -88.6079 254° West  Level FlightAware Approximate
11:46PM 41.9364 -88.2558 264° West 274 315 10,300  Level Chicago Center
11:47PM 41.7741 -88.7512 253° West  Level FlightAware Approximate
11:47PM 41.9306 -88.3586 266° West 277 319 13,300  Level Chicago Center
11:48PM 41.9033 -88.4542 249° West 279 321 15,100 1,500 Climbing Chicago Center
11:49PM 41.8625 -88.5886 248° West 324 373 16,400 1,200 Climbing Chicago Center
11:50PM 41.8294 -88.7164 251° West 360 414 17,600 1,380 Climbing Chicago Center
11:51PM 41.7961 -88.8497 252° West 378 435 19,300 1,680 Climbing Chicago Center
11:52PM 41.7608 -88.9844 251° West 387 445 21,100 1,740 Climbing Chicago Center
11:53PM 41.7264 -89.1211 251° West 391 450 22,900 1,800 Climbing Chicago Center
11:54PM 41.6931 -89.2539 251° West 384 442 24,800 1,740 Climbing Chicago Center
11:55PM 41.6464 -89.3808 244° Southwest 387 445 26,500 1,560 Climbing Chicago Center
11:56PM 41.5811 -89.4997 234° Southwest 399 459 28,000 1,560 Climbing Chicago Center
11:57PM 41.5081 -89.6325 234° Southwest 399 459 29,700 1,320 Climbing Chicago Center
11:58PM 41.4422 -89.7494 233° Southwest 397 457 30,800 1,020 Climbing Chicago Center
11:59PM 41.3742 -89.8689 233° Southwest 405 466 31,800 960 Climbing Chicago Center
12:00AM 41.3067 -89.9908 234° Southwest 411 473 32,800 960 Climbing Chicago Center
12:01AM 41.2383 -90.1103 233° Southwest 409 471 33,800 960 Climbing Chicago Center
12:02AM 41.1703 -90.2306 233° Southwest 410 472 34,800 960 Climbing Chicago Center
12:03AM 41.1019 -90.3506 233° Southwest 412 474 35,800 540 Climbing Chicago Center
12:04AM 41.0344 -90.4686 233° Southwest 408 470 36,000 60 Climbing Chicago Center
12:05AM 40.9647 -90.5889 233° Southwest 411 473 36,000  Level Chicago Center
12:06AM 40.8911 -90.7158 233° Southwest 430 495 36,000  Level Chicago Center
12:07AM 40.8042 -90.8656 233° Southwest 431 496 36,000  Level Chicago Center
12:08AM 40.7317 -90.9889 232° Southwest 429 494 36,000 240 Level Chicago Center
12:09AM 40.6572 -91.1144 232° Southwest 434 499 36,500 600 Climbing Chicago Center
12:10AM 40.5856 -91.2375 233° Southwest 426 490 37,300 720 Climbing Chicago Center
12:11AM 40.5164 -91.3556 232° Southwest 420 483 38,000 300 Climbing Chicago Center
12:12AM 40.4439 -91.4747 231° Southwest 419 482 38,000  Level Kansas City Center
12:13AM 40.3569 -91.6214 232° Southwest 425 489 38,000  Level Kansas City Center
12:14AM 40.2833 -91.7444 232° Southwest 429 494 38,000  Level Kansas City Center
12:15AM 40.2094 -91.8661 232° Southwest 429 494 38,000  Level Kansas City Center
12:16AM 40.1367 -91.9883 232° Southwest 428 493 38,000  Level Kansas City Center
12:17AM 40.0631 -92.1092 232° Southwest 426 490 38,000  Level Kansas City Center
12:18AM 39.9892 -92.2322 232° Southwest 428 493 38,000  Level Kansas City Center
12:19AM 39.9133 -92.3553 231° Southwest 433 498 38,000  Level Kansas City Center
12:20AM 39.8389 -92.4772 232° Southwest 432 497 38,000  Level Kansas City Center
12:21AM 39.7633 -92.6017 232° Southwest 437 503 38,000  Level Kansas City Center
12:22AM 39.6881 -92.7258 232° Southwest 438 504 38,000  Level Kansas City Center
12:23AM 39.6103 -92.8472 230° Southwest 440 506 38,000  Level Kansas City Center
12:24AM 39.5344 -92.9686 231° Southwest 438 504 38,000  Level Kansas City Center
12:25AM 39.4594 -93.0881 231° Southwest 435 501 38,000  Level Kansas City Center
12:26AM 39.3686 -93.2339 231° Southwest 435 501 38,000  Level Kansas City Center
12:27AM 39.2922 -93.3539 231° Southwest 436 502 38,000  Level Kansas City Center
12:28AM 39.2158 -93.4792 232° Southwest 436 502 38,000  Level Kansas City Center
12:30AM 39.1419 -93.5956 231° Southwest 437 503 38,000  Level Kansas City Center
12:31AM 39.0678 -93.7125 231° Southwest 440 506 38,000  Level Kansas City Center
12:32AM 38.9806 -93.8486 231° Southwest 440 506 38,000  Level Kansas City Center
12:33AM 38.9050 -93.9644 230° Southwest 441 507 38,000  Level Kansas City Center
12:34AM 38.8308 -94.0800 231° Southwest 439 505 38,000  Level Kansas City Center
12:35AM 38.7433 -94.2142 230° Southwest 438 504 38,000  Level Kansas City Center
12:36AM 38.6689 -94.3303 231° Southwest 439 505 38,000  Level Kansas City Center
12:37AM 38.5939 -94.4447 230° Southwest 438 504 38,000  Level Kansas City Center
12:38AM 38.5064 -94.5786 230° Southwest 437 503 38,000  Level Kansas City Center
12:39AM 38.4303 -94.6936 230° Southwest 440 506 38,000  Level Kansas City Center
12:40AM 38.3392 -94.7878 219° Southwest 437 503 38,000  Level Kansas City Center
12:41AM 38.2317 -94.8958 218° Southwest 439 505 38,000  Level Kansas City Center
12:42AM 38.1383 -94.9881 218° Southwest 440 506 38,000  Level Kansas City Center
12:43AM 38.0467 -95.0792 218° Southwest 439 505 38,000  Level Kansas City Center
12:44AM 37.9528 -95.1753 219° Southwest 447 514 38,000  Level Kansas City Center
12:45AM 37.8433 -95.2825 218° Southwest 440 506 38,000  Level Kansas City Center
12:46AM 37.7458 -95.3789 218° Southwest 442 509 38,000  Level Kansas City Center
12:47AM 37.6492 -95.4742 218° Southwest 442 509 38,000  Level Kansas City Center
12:48AM 37.5511 -95.5689 217° Southwest 444 511 38,000  Level Kansas City Center
12:49AM 37.4536 -95.6650 218° Southwest 444 511 38,000  Level Kansas City Center
12:50AM 37.3550 -95.7606 218° Southwest 447 514 38,000  Level Kansas City Center
12:51AM 37.2567 -95.8558 218° Southwest 447 514 38,000 -780 Level Kansas City Center
12:52AM 37.1586 -95.9506 218° Southwest 446 513 36,500 -1,320 Descending Kansas City Center
12:53AM 37.0614 -96.0428 217° Southwest 442 509 35,300 -1,680 Descending Kansas City Center
12:54AM 36.9656 -96.1350 218° Southwest 439 505 33,200 -1,980 Descending Kansas City Center
12:55AM 36.8658 -96.2292 217° Southwest 444 511 31,300 -1,920 Descending Kansas City Center
12:56AM 36.7639 -96.3272 218° Southwest 456 525 29,300 -1,920 Descending Kansas City Center
12:57AM 36.6606 -96.4261 218° Southwest 466 536 27,500 -1,920 Descending Kansas City Center
12:58AM 36.5608 -96.5189 217° Southwest 457 526 25,500 -1,980 Descending Kansas City Center
12:59AM 36.4631 -96.6114 217° Southwest 447 514 23,500 -2,160 Descending Kansas City Center
01:00AM 36.3453 -96.7217 217° Southwest 444 511 21,100 -2,220 Descending Kansas City Center
01:01AM 36.2478 -96.8139 217° Southwest 437 503 19,100 -2,040 Descending Kansas City Center
01:02AM 36.1553 -96.9006 217° Southwest 424 488 17,100 -2,040 Descending Kansas City Center
01:03AM 36.0636 -96.9853 217° Southwest 415 478 15,100 -1,980 Descending Kansas City Center
01:04AM 35.9761 -97.0667 217° Southwest 402 463 13,100 -1,980 Descending Kansas City Center
01:05AM 35.8908 -97.1467 217° Southwest 392 451 11,100 -1,560 Descending Kansas City Center
01:06AM 35.8208 -97.2250 222° Southwest 358 412 10,000 -1,200 Descending Kansas City Center
01:07AM 35.7631 -97.2875 221° Southwest 303 349 8,800 -1,440 Descending Kansas City Center
01:08AM 35.7078 -97.3469 221° Southwest 273 314 7,100 -1,380 Descending Kansas City Center
01:09AM 35.6569 -97.4028 222° Southwest 260 299 6,000 -1,140 Descending Kansas City Center
01:10AM 35.6094 -97.4519 220° Southwest 242 278 4,900 -1,080 Descending Kansas City Center
01:11AM 35.5633 -97.5028 222° Southwest 228 262 3,900 -1,020 Descending Kansas City Center